sensor_id;sensor_type;location;lat;lon;timestamp;temperature;humidity
52459;DHT22;38372;52.902;6.024;2023-06-10T00:00:39;16.00;99.90
52459;DHT22;38372;52.902;6.024;2023-06-10T00:03:07;16.10;99.90
52459;DHT22;38372;52.902;6.024;2023-06-10T00:05:34;16.20;99.90
52459;DHT22;38372;52.902;6.024;2023-06-10T00:08:02;16.20;99.90
52459;DHT22;38372;52.902;6.024;2023-06-10T00:10:37;16.30;99.90
52459;DHT22;38372;52.902;6.024;2023-06-10T00:13:05;16.40;99.90
52459;DHT22;38372;52.902;6.024;2023-06-10T00:15:34;16.40;99.90
52459;DHT22;38372;52.902;6.024;2023-06-10T00:18:01;16.40;99.90
52459;DHT22;38372;52.902;6.024;2023-06-10T00:20:29;16.50;99.90
52459;DHT22;38372;52.902;6.024;2023-06-10T00:22:57;16.50;99.90
52459;DHT22;38372;52.902;6.024;2023-06-10T00:25:24;16.40;99.90
52459;DHT22;38372;52.902;6.024;2023-06-10T00:27:51;16.40;99.90
52459;DHT22;38372;52.902;6.024;2023-06-10T00:30:17;16.40;99.90
52459;DHT22;38372;52.902;6.024;2023-06-10T00:32:43;16.40;99.90
52459;DHT22;38372;52.902;6.024;2023-06-10T00:35:09;16.40;99.90
52459;DHT22;38372;52.902;6.024;2023-06-10T00:37:35;16.40;99.90
52459;DHT22;38372;52.902;6.024;2023-06-10T00:40:03;16.50;99.90
52459;DHT22;38372;52.902;6.024;2023-06-10T00:42:29;16.50;99.90
52459;DHT22;38372;52.902;6.024;2023-06-10T00:44:55;16.50;99.90
52459;DHT22;38372;52.902;6.024;2023-06-10T00:47:21;16.40;99.90
52459;DHT22;38372;52.902;6.024;2023-06-10T00:49:48;16.40;99.90
52459;DHT22;38372;52.902;6.024;2023-06-10T00:52:16;16.50;99.90
52459;DHT22;38372;52.902;6.024;2023-06-10T00:54:42;16.50;99.90
52459;DHT22;38372;52.902;6.024;2023-06-10T00:57:09;16.50;99.90
52459;DHT22;38372;52.902;6.024;2023-06-10T00:59:35;16.40;99.90
52459;DHT22;38372;52.902;6.024;2023-06-10T01:02:01;16.50;99.90
52459;DHT22;38372;52.902;6.024;2023-06-10T01:04:28;16.50;99.90
52459;DHT22;38372;52.902;6.024;2023-06-10T01:07:15;16.50;99.90
52459;DHT22;38372;52.902;6.024;2023-06-10T01:10:02;16.40;99.90
52459;DHT22;38372;52.902;6.024;2023-06-10T01:12:49;16.50;99.90
52459;DHT22;38372;52.902;6.024;2023-06-10T01:15:17;16.40;99.90
52459;DHT22;38372;52.902;6.024;2023-06-10T01:17:57;16.40;99.90
52459;DHT22;38372;52.902;6.024;2023-06-10T01:20:26;16.40;99.90
52459;DHT22;38372;52.902;6.024;2023-06-10T01:22:55;16.40;99.90
52459;DHT22;38372;52.902;6.024;2023-06-10T01:25:24;16.40;99.90
52459;DHT22;38372;52.902;6.024;2023-06-10T01:28:51;16.30;99.90
52459;DHT22;38372;52.902;6.024;2023-06-10T01:33:32;16.20;99.90
52459;DHT22;38372;52.902;6.024;2023-06-10T01:36:01;16.20;99.90
52459;DHT22;38372;52.902;6.024;2023-06-10T01:38:33;16.20;99.90
52459;DHT22;38372;52.902;6.024;2023-06-10T01:41:01;16.10;99.90
52459;DHT22;38372;52.902;6.024;2023-06-10T01:43:28;16.10;99.90
52459;DHT22;38372;52.902;6.024;2023-06-10T01:45:54;16.00;99.90
52459;DHT22;38372;52.902;6.024;2023-06-10T01:48:20;15.90;99.90
52459;DHT22;38372;52.902;6.024;2023-06-10T01:50:46;15.90;99.90
52459;DHT22;38372;52.902;6.024;2023-06-10T01:53:11;15.90;99.90
52459;DHT22;38372;52.902;6.024;2023-06-10T01:55:37;15.80;99.90
52459;DHT22;38372;52.902;6.024;2023-06-10T01:58:03;15.70;99.90
52459;DHT22;38372;52.902;6.024;2023-06-10T02:00:29;15.60;99.90
52459;DHT22;38372;52.902;6.024;2023-06-10T02:02:55;15.50;99.90
52459;DHT22;38372;52.902;6.024;2023-06-10T02:05:20;15.50;99.90
52459;DHT22;38372;52.902;6.024;2023-06-10T02:07:46;15.40;99.90
52459;DHT22;38372;52.902;6.024;2023-06-10T02:10:12;15.30;99.90
52459;DHT22;38372;52.902;6.024;2023-06-10T02:12:38;15.30;99.90
52459;DHT22;38372;52.902;6.024;2023-06-10T02:15:04;15.30;99.90
52459;DHT22;38372;52.902;6.024;2023-06-10T02:17:30;15.30;99.90
52459;DHT22;38372;52.902;6.024;2023-06-10T02:19:56;15.30;99.90
52459;DHT22;38372;52.902;6.024;2023-06-10T02:22:23;15.20;99.90
52459;DHT22;38372;52.902;6.024;2023-06-10T02:24:49;15.20;99.90
52459;DHT22;38372;52.902;6.024;2023-06-10T02:27:18;15.10;99.90
52459;DHT22;38372;52.902;6.024;2023-06-10T02:29:44;15.10;99.90
52459;DHT22;38372;52.902;6.024;2023-06-10T02:32:10;15.10;99.90
52459;DHT22;38372;52.902;6.024;2023-06-10T02:34:36;15.20;99.90
52459;DHT22;38372;52.902;6.024;2023-06-10T02:37:05;15.20;99.90
52459;DHT22;38372;52.902;6.024;2023-06-10T02:39:30;15.20;99.90
52459;DHT22;38372;52.902;6.024;2023-06-10T02:41:56;15.20;99.90
52459;DHT22;38372;52.902;6.024;2023-06-10T02:44:22;15.30;99.90
52459;DHT22;38372;52.902;6.024;2023-06-10T02:46:48;15.30;99.90
52459;DHT22;38372;52.902;6.024;2023-06-10T02:49:14;15.40;99.90
52459;DHT22;38372;52.902;6.024;2023-06-10T02:51:39;15.40;99.90
52459;DHT22;38372;52.902;6.024;2023-06-10T02:54:05;15.40;99.90
52459;DHT22;38372;52.902;6.024;2023-06-10T02:56:32;15.30;99.90
52459;DHT22;38372;52.902;6.024;2023-06-10T02:58:59;15.30;99.90
52459;DHT22;38372;52.902;6.024;2023-06-10T03:01:25;15.30;99.90
52459;DHT22;38372;52.902;6.024;2023-06-10T03:03:50;15.30;99.90
52459;DHT22;38372;52.902;6.024;2023-06-10T03:06:16;15.30;99.90
52459;DHT22;38372;52.902;6.024;2023-06-10T03:08:43;15.30;99.90
52459;DHT22;38372;52.902;6.024;2023-06-10T03:11:09;15.30;99.90
52459;DHT22;38372;52.902;6.024;2023-06-10T03:13:35;15.20;99.90
52459;DHT22;38372;52.902;6.024;2023-06-10T03:16:01;15.20;99.90
52459;DHT22;38372;52.902;6.024;2023-06-10T03:18:28;15.10;99.90
52459;DHT22;38372;52.902;6.024;2023-06-10T03:20:55;15.10;99.90
52459;DHT22;38372;52.902;6.024;2023-06-10T03:23:22;15.10;99.90
52459;DHT22;38372;52.902;6.024;2023-06-10T03:25:48;15.10;99.90
52459;DHT22;38372;52.902;6.024;2023-06-10T03:28:14;15.10;99.90
52459;DHT22;38372;52.902;6.024;2023-06-10T03:30:40;15.10;99.90
52459;DHT22;38372;52.902;6.024;2023-06-10T03:33:05;15.00;99.90
52459;DHT22;38372;52.902;6.024;2023-06-10T03:35:31;15.00;99.90
52459;DHT22;38372;52.902;6.024;2023-06-10T03:37:58;14.90;99.90
52459;DHT22;38372;52.902;6.024;2023-06-10T03:40:24;14.90;99.90
52459;DHT22;38372;52.902;6.024;2023-06-10T03:42:50;14.90;99.90
52459;DHT22;38372;52.902;6.024;2023-06-10T03:45:16;14.90;99.90
52459;DHT22;38372;52.902;6.024;2023-06-10T03:47:42;14.90;99.90
52459;DHT22;38372;52.902;6.024;2023-06-10T03:50:09;14.90;99.90
52459;DHT22;38372;52.902;6.024;2023-06-10T03:52:36;14.90;99.90
52459;DHT22;38372;52.902;6.024;2023-06-10T03:55:02;14.80;99.90
52459;DHT22;38372;52.902;6.024;2023-06-10T03:57:28;14.90;99.90
52459;DHT22;38372;52.902;6.024;2023-06-10T03:59:54;14.90;99.90
52459;DHT22;38372;52.902;6.024;2023-06-10T04:02:20;14.90;99.90
52459;DHT22;38372;52.902;6.024;2023-06-10T04:04:46;14.90;99.90
52459;DHT22;38372;52.902;6.024;2023-06-10T04:07:12;14.90;99.90
52459;DHT22;38372;52.902;6.024;2023-06-10T04:09:39;14.90;99.90
52459;DHT22;38372;52.902;6.024;2023-06-10T04:12:05;14.90;99.90
52459;DHT22;38372;52.902;6.024;2023-06-10T04:14:36;14.80;99.90
52459;DHT22;38372;52.902;6.024;2023-06-10T04:17:04;14.80;99.90
52459;DHT22;38372;52.902;6.024;2023-06-10T04:19:32;14.80;99.90
52459;DHT22;38372;52.902;6.024;2023-06-10T04:22:00;14.80;99.90
52459;DHT22;38372;52.902;6.024;2023-06-10T04:24:26;14.80;99.90
52459;DHT22;38372;52.902;6.024;2023-06-10T04:26:52;14.80;99.90
52459;DHT22;38372;52.902;6.024;2023-06-10T04:29:17;14.80;99.90
52459;DHT22;38372;52.902;6.024;2023-06-10T04:31:43;14.90;99.90
52459;DHT22;38372;52.902;6.024;2023-06-10T04:34:12;14.90;99.90
52459;DHT22;38372;52.902;6.024;2023-06-10T04:36:38;14.90;99.90
52459;DHT22;38372;52.902;6.024;2023-06-10T04:39:04;14.90;99.90
52459;DHT22;38372;52.902;6.024;2023-06-10T04:41:31;14.90;99.90
52459;DHT22;38372;52.902;6.024;2023-06-10T04:43:57;15.00;99.90
52459;DHT22;38372;52.902;6.024;2023-06-10T04:46:23;15.00;99.90
52459;DHT22;38372;52.902;6.024;2023-06-10T04:48:50;15.00;99.90
52459;DHT22;38372;52.902;6.024;2023-06-10T04:51:16;15.00;99.90
52459;DHT22;38372;52.902;6.024;2023-06-10T04:53:42;15.10;99.90
52459;DHT22;38372;52.902;6.024;2023-06-10T04:56:08;15.10;99.90
52459;DHT22;38372;52.902;6.024;2023-06-10T04:58:34;15.10;99.90
52459;DHT22;38372;52.902;6.024;2023-06-10T05:01:00;15.20;99.90
52459;DHT22;38372;52.902;6.024;2023-06-10T05:03:27;15.30;99.90
52459;DHT22;38372;52.902;6.024;2023-06-10T05:05:53;15.40;99.90
52459;DHT22;38372;52.902;6.024;2023-06-10T05:08:19;15.40;99.90
52459;DHT22;38372;52.902;6.024;2023-06-10T05:10:44;15.50;99.90
52459;DHT22;38372;52.902;6.024;2023-06-10T05:13:10;15.60;99.90
52459;DHT22;38372;52.902;6.024;2023-06-10T05:15:36;15.60;99.90
52459;DHT22;38372;52.902;6.024;2023-06-10T05:18:02;15.70;99.90
52459;DHT22;38372;52.902;6.024;2023-06-10T05:20:29;15.80;99.90
52459;DHT22;38372;52.902;6.024;2023-06-10T05:22:54;15.80;99.90
52459;DHT22;38372;52.902;6.024;2023-06-10T05:25:21;15.90;99.90
52459;DHT22;38372;52.902;6.024;2023-06-10T05:27:47;16.00;99.90
52459;DHT22;38372;52.902;6.024;2023-06-10T05:30:13;16.10;99.90
52459;DHT22;38372;52.902;6.024;2023-06-10T05:32:38;16.20;99.90
52459;DHT22;38372;52.902;6.024;2023-06-10T05:35:04;16.20;99.90
52459;DHT22;38372;52.902;6.024;2023-06-10T05:37:33;16.30;99.90
52459;DHT22;38372;52.902;6.024;2023-06-10T05:40:00;16.40;99.90
52459;DHT22;38372;52.902;6.024;2023-06-10T05:42:25;16.50;99.90
52459;DHT22;38372;52.902;6.024;2023-06-10T05:44:51;16.60;99.90
52459;DHT22;38372;52.902;6.024;2023-06-10T05:47:17;16.70;99.90
52459;DHT22;38372;52.902;6.024;2023-06-10T05:49:43;16.80;99.90
52459;DHT22;38372;52.902;6.024;2023-06-10T05:52:11;16.90;99.90
52459;DHT22;38372;52.902;6.024;2023-06-10T05:54:37;17.00;99.90
52459;DHT22;38372;52.902;6.024;2023-06-10T05:57:02;17.10;99.90
52459;DHT22;38372;52.902;6.024;2023-06-10T05:59:29;17.20;99.90
52459;DHT22;38372;52.902;6.024;2023-06-10T06:01:55;17.30;99.90
52459;DHT22;38372;52.902;6.024;2023-06-10T06:04:20;17.40;99.90
52459;DHT22;38372;52.902;6.024;2023-06-10T06:06:46;17.50;99.90
52459;DHT22;38372;52.902;6.024;2023-06-10T06:09:12;17.60;99.90
52459;DHT22;38372;52.902;6.024;2023-06-10T06:11:38;17.60;99.90
52459;DHT22;38372;52.902;6.024;2023-06-10T06:14:04;17.80;99.90
52459;DHT22;38372;52.902;6.024;2023-06-10T06:16:30;17.80;99.90
52459;DHT22;38372;52.902;6.024;2023-06-10T06:18:56;18.00;99.90
52459;DHT22;38372;52.902;6.024;2023-06-10T06:21:21;18.10;99.90
52459;DHT22;38372;52.902;6.024;2023-06-10T06:23:47;18.20;99.90
52459;DHT22;38372;52.902;6.024;2023-06-10T06:26:13;18.30;99.90
52459;DHT22;38372;52.902;6.024;2023-06-10T06:28:39;18.40;99.90
52459;DHT22;38372;52.902;6.024;2023-06-10T06:31:05;18.60;99.90
52459;DHT22;38372;52.902;6.024;2023-06-10T06:33:32;18.80;99.90
52459;DHT22;38372;52.902;6.024;2023-06-10T06:35:58;19.10;99.90
52459;DHT22;38372;52.902;6.024;2023-06-10T06:38:26;19.30;99.90
52459;DHT22;38372;52.902;6.024;2023-06-10T06:40:51;19.60;99.90
52459;DHT22;38372;52.902;6.024;2023-06-10T06:43:17;19.80;99.90
52459;DHT22;38372;52.902;6.024;2023-06-10T06:45:44;20.00;99.90
52459;DHT22;38372;52.902;6.024;2023-06-10T06:48:11;20.00;99.90
52459;DHT22;38372;52.902;6.024;2023-06-10T06:50:37;20.20;99.90
52459;DHT22;38372;52.902;6.024;2023-06-10T06:53:03;20.40;99.90
52459;DHT22;38372;52.902;6.024;2023-06-10T06:55:29;20.50;99.90
52459;DHT22;38372;52.902;6.024;2023-06-10T06:57:55;20.70;99.90
52459;DHT22;38372;52.902;6.024;2023-06-10T07:00:22;20.90;99.90
52459;DHT22;38372;52.902;6.024;2023-06-10T07:02:48;21.20;99.90
52459;DHT22;38372;52.902;6.024;2023-06-10T07:05:14;21.40;99.90
52459;DHT22;38372;52.902;6.024;2023-06-10T07:07:40;21.50;99.90
52459;DHT22;38372;52.902;6.024;2023-06-10T07:10:06;21.60;99.90
52459;DHT22;38372;52.902;6.024;2023-06-10T07:12:32;21.80;99.90
52459;DHT22;38372;52.902;6.024;2023-06-10T07:14:58;21.90;99.90
52459;DHT22;38372;52.902;6.024;2023-06-10T07:17:23;22.10;99.90
52459;DHT22;38372;52.902;6.024;2023-06-10T07:19:49;22.20;99.90
52459;DHT22;38372;52.902;6.024;2023-06-10T07:22:17;22.40;99.90
52459;DHT22;38372;52.902;6.024;2023-06-10T07:24:43;22.70;99.90
52459;DHT22;38372;52.902;6.024;2023-06-10T07:27:09;22.90;99.90
52459;DHT22;38372;52.902;6.024;2023-06-10T07:29:35;23.10;99.90
52459;DHT22;38372;52.902;6.024;2023-06-10T07:32:03;23.50;99.90
52459;DHT22;38372;52.902;6.024;2023-06-10T07:34:29;23.60;99.90
52459;DHT22;38372;52.902;6.024;2023-06-10T07:36:55;23.70;99.90
52459;DHT22;38372;52.902;6.024;2023-06-10T07:39:21;23.70;98.70
52459;DHT22;38372;52.902;6.024;2023-06-10T07:41:46;23.70;98.00
52459;DHT22;38372;52.902;6.024;2023-06-10T07:44:14;23.80;98.40
52459;DHT22;38372;52.902;6.024;2023-06-10T07:46:40;24.00;98.00
52459;DHT22;38372;52.902;6.024;2023-06-10T07:49:06;24.00;97.00
52459;DHT22;38372;52.902;6.024;2023-06-10T07:51:32;24.00;96.30
52459;DHT22;38372;52.902;6.024;2023-06-10T07:53:58;24.00;97.30
52459;DHT22;38372;52.902;6.024;2023-06-10T07:56:23;24.10;96.90
52459;DHT22;38372;52.902;6.024;2023-06-10T07:58:50;24.30;96.30
52459;DHT22;38372;52.902;6.024;2023-06-10T08:01:16;24.50;96.70
52459;DHT22;38372;52.902;6.024;2023-06-10T08:03:42;24.50;95.90
52459;DHT22;38372;52.902;6.024;2023-06-10T08:06:09;24.60;95.90
52459;DHT22;38372;52.902;6.024;2023-06-10T08:08:37;24.70;96.10
52459;DHT22;38372;52.902;6.024;2023-06-10T08:11:07;24.80;95.60
52459;DHT22;38372;52.902;6.024;2023-06-10T08:13:33;24.80;95.50
52459;DHT22;38372;52.902;6.024;2023-06-10T08:15:59;25.10;95.10
52459;DHT22;38372;52.902;6.024;2023-06-10T08:18:26;25.30;95.00
52459;DHT22;38372;52.902;6.024;2023-06-10T08:20:52;25.50;94.80
52459;DHT22;38372;52.902;6.024;2023-06-10T08:23:18;25.70;94.50
52459;DHT22;38372;52.902;6.024;2023-06-10T08:25:45;25.90;93.50
52459;DHT22;38372;52.902;6.024;2023-06-10T08:28:11;26.10;92.80
52459;DHT22;38372;52.902;6.024;2023-06-10T08:30:37;26.30;92.70
52459;DHT22;38372;52.902;6.024;2023-06-10T08:33:02;26.40;91.90
52459;DHT22;38372;52.902;6.024;2023-06-10T08:35:28;26.50;91.50
52459;DHT22;38372;52.902;6.024;2023-06-10T08:37:54;26.40;91.70
52459;DHT22;38372;52.902;6.024;2023-06-10T08:40:20;26.60;91.40
52459;DHT22;38372;52.902;6.024;2023-06-10T08:45:17;26.90;90.00
52459;DHT22;38372;52.902;6.024;2023-06-10T08:47:49;27.00;89.60
52459;DHT22;38372;52.902;6.024;2023-06-10T08:50:19;27.00;87.90
52459;DHT22;38372;52.902;6.024;2023-06-10T08:52:48;27.20;89.40
52459;DHT22;38372;52.902;6.024;2023-06-10T08:55:18;27.40;87.50
52459;DHT22;38372;52.902;6.024;2023-06-10T08:57:48;27.50;87.60
52459;DHT22;38372;52.902;6.024;2023-06-10T09:00:16;27.50;86.10
52459;DHT22;38372;52.902;6.024;2023-06-10T09:02:43;27.60;86.70
52459;DHT22;38372;52.902;6.024;2023-06-10T09:05:09;27.60;87.10
52459;DHT22;38372;52.902;6.024;2023-06-10T09:07:35;27.60;86.90
52459;DHT22;38372;52.902;6.024;2023-06-10T09:10:03;27.80;86.90
52459;DHT22;38372;52.902;6.024;2023-06-10T09:12:35;28.20;86.20
52459;DHT22;38372;52.902;6.024;2023-06-10T09:15:05;28.30;84.60
52459;DHT22;38372;52.902;6.024;2023-06-10T09:17:31;28.40;85.10
52459;DHT22;38372;52.902;6.024;2023-06-10T09:19:57;28.60;85.20
52459;DHT22;38372;52.902;6.024;2023-06-10T09:22:23;28.50;82.70
52459;DHT22;38372;52.902;6.024;2023-06-10T09:24:49;28.50;81.60
52459;DHT22;38372;52.902;6.024;2023-06-10T09:27:15;28.60;80.90
52459;DHT22;38372;52.902;6.024;2023-06-10T09:29:51;28.60;79.10
52459;DHT22;38372;52.902;6.024;2023-06-10T09:32:18;28.50;69.70
52459;DHT22;38372;52.902;6.024;2023-06-10T09:34:45;28.50;77.70
52459;DHT22;38372;52.902;6.024;2023-06-10T09:37:11;28.50;78.50
52459;DHT22;38372;52.902;6.024;2023-06-10T09:39:40;28.70;79.40
52459;DHT22;38372;52.902;6.024;2023-06-10T09:42:18;28.90;79.30
52459;DHT22;38372;52.902;6.024;2023-06-10T09:44:50;29.10;77.90
52459;DHT22;38372;52.902;6.024;2023-06-10T09:47:23;29.30;72.50
52459;DHT22;38372;52.902;6.024;2023-06-10T09:49:49;29.50;77.10
52459;DHT22;38372;52.902;6.024;2023-06-10T09:52:27;29.60;76.70
52459;DHT22;38372;52.902;6.024;2023-06-10T09:54:55;29.70;70.20
52459;DHT22;38372;52.902;6.024;2023-06-10T09:57:24;29.70;73.50
52459;DHT22;38372;52.902;6.024;2023-06-10T09:59:53;29.70;75.10
52459;DHT22;38372;52.902;6.024;2023-06-10T10:02:20;29.80;74.70
52459;DHT22;38372;52.902;6.024;2023-06-10T10:04:46;29.90;73.20
52459;DHT22;38372;52.902;6.024;2023-06-10T10:07:13;30.00;73.70
52459;DHT22;38372;52.902;6.024;2023-06-10T10:09:39;30.10;73.70
52459;DHT22;38372;52.902;6.024;2023-06-10T10:12:11;30.30;72.10
52459;DHT22;38372;52.902;6.024;2023-06-10T10:14:38;30.40;71.00
52459;DHT22;38372;52.902;6.024;2023-06-10T10:17:11;30.50;70.60
52459;DHT22;38372;52.902;6.024;2023-06-10T10:19:46;30.70;69.00
52459;DHT22;38372;52.902;6.024;2023-06-10T10:22:18;30.80;67.30
52459;DHT22;38372;52.902;6.024;2023-06-10T10:24:49;30.90;66.10
52459;DHT22;38372;52.902;6.024;2023-06-10T10:27:27;30.80;65.80
52459;DHT22;38372;52.902;6.024;2023-06-10T10:29:55;30.90;60.30
52459;DHT22;38372;52.902;6.024;2023-06-10T10:32:37;31.00;63.90
52459;DHT22;38372;52.902;6.024;2023-06-10T10:35:08;30.90;63.80
52459;DHT22;38372;52.902;6.024;2023-06-10T10:37:36;30.90;62.60
52459;DHT22;38372;52.902;6.024;2023-06-10T10:40:02;31.10;63.50
52459;DHT22;38372;52.902;6.024;2023-06-10T10:42:29;31.20;63.70
52459;DHT22;38372;52.902;6.024;2023-06-10T10:44:56;31.30;62.60
52459;DHT22;38372;52.902;6.024;2023-06-10T10:47:22;31.20;61.20
52459;DHT22;38372;52.902;6.024;2023-06-10T10:49:52;31.10;61.30
52459;DHT22;38372;52.902;6.024;2023-06-10T10:52:25;31.00;58.70
52459;DHT22;38372;52.902;6.024;2023-06-10T10:54:53;31.00;59.60
52459;DHT22;38372;52.902;6.024;2023-06-10T10:57:21;31.00;59.30
52459;DHT22;38372;52.902;6.024;2023-06-10T10:59:56;31.00;57.80
52459;DHT22;38372;52.902;6.024;2023-06-10T11:02:43;31.10;56.60
52459;DHT22;38372;52.902;6.024;2023-06-10T11:05:16;31.10;48.50
52459;DHT22;38372;52.902;6.024;2023-06-10T11:07:55;31.10;52.50
52459;DHT22;38372;52.902;6.024;2023-06-10T11:10:32;31.20;53.00
52459;DHT22;38372;52.902;6.024;2023-06-10T11:12:59;31.20;55.10
52459;DHT22;38372;52.902;6.024;2023-06-10T11:15:27;31.20;55.60
52459;DHT22;38372;52.902;6.024;2023-06-10T11:31:28;31.80;55.30
52459;DHT22;38372;52.902;6.024;2023-06-10T11:33:55;31.90;55.20
52459;DHT22;38372;52.902;6.024;2023-06-10T11:36:22;31.90;55.40
52459;DHT22;38372;52.902;6.024;2023-06-10T11:38:49;31.80;54.90
52459;DHT22;38372;52.902;6.024;2023-06-10T11:41:15;31.90;54.60
52459;DHT22;38372;52.902;6.024;2023-06-10T11:43:43;32.00;55.10
52459;DHT22;38372;52.902;6.024;2023-06-10T11:46:11;31.90;53.90
52459;DHT22;38372;52.902;6.024;2023-06-10T11:48:36;32.00;55.40
52459;DHT22;38372;52.902;6.024;2023-06-10T11:51:08;32.00;53.60
52459;DHT22;38372;52.902;6.024;2023-06-10T11:53:35;32.00;52.10
52459;DHT22;38372;52.902;6.024;2023-06-10T11:56:01;31.90;52.50
52459;DHT22;38372;52.902;6.024;2023-06-10T11:58:27;31.80;54.00
52459;DHT22;38372;52.902;6.024;2023-06-10T12:00:54;31.80;55.40
52459;DHT22;38372;52.902;6.024;2023-06-10T12:03:24;31.90;54.50
52459;DHT22;38372;52.902;6.024;2023-06-10T12:06:04;31.90;52.50
52459;DHT22;38372;52.902;6.024;2023-06-10T12:08:31;31.70;50.30
52459;DHT22;38372;52.902;6.024;2023-06-10T12:10:58;31.60;51.90
52459;DHT22;38372;52.902;6.024;2023-06-10T12:13:26;31.50;51.00
52459;DHT22;38372;52.902;6.024;2023-06-10T12:15:53;31.60;52.30
52459;DHT22;38372;52.902;6.024;2023-06-10T12:18:20;31.60;51.80
52459;DHT22;38372;52.902;6.024;2023-06-10T12:20:46;31.60;52.60
52459;DHT22;38372;52.902;6.024;2023-06-10T12:23:12;31.50;50.20
52459;DHT22;38372;52.902;6.024;2023-06-10T12:25:39;31.50;50.40
52459;DHT22;38372;52.902;6.024;2023-06-10T12:28:05;31.50;50.20
52459;DHT22;38372;52.902;6.024;2023-06-10T12:30:33;31.40;50.50
52459;DHT22;38372;52.902;6.024;2023-06-10T12:32:58;31.30;50.30
52459;DHT22;38372;52.902;6.024;2023-06-10T12:35:26;31.20;48.40
52459;DHT22;38372;52.902;6.024;2023-06-10T12:38:04;31.20;49.50
52459;DHT22;38372;52.902;6.024;2023-06-10T12:40:37;31.10;48.50
52459;DHT22;38372;52.902;6.024;2023-06-10T12:43:03;31.10;49.90
52459;DHT22;38372;52.902;6.024;2023-06-10T12:45:35;31.00;49.10
52459;DHT22;38372;52.902;6.024;2023-06-10T12:48:12;31.00;49.10
52459;DHT22;38372;52.902;6.024;2023-06-10T12:50:43;30.70;48.80
52459;DHT22;38372;52.902;6.024;2023-06-10T12:53:10;30.60;49.20
52459;DHT22;38372;52.902;6.024;2023-06-10T12:55:37;30.40;49.80
52459;DHT22;38372;52.902;6.024;2023-06-10T12:58:03;30.40;49.60
52459;DHT22;38372;52.902;6.024;2023-06-10T13:00:29;30.30;48.50
52459;DHT22;38372;52.902;6.024;2023-06-10T13:02:56;30.10;49.40
52459;DHT22;38372;52.902;6.024;2023-06-10T13:05:22;30.10;49.00
52459;DHT22;38372;52.902;6.024;2023-06-10T13:07:48;30.10;47.90
52459;DHT22;38372;52.902;6.024;2023-06-10T13:10:15;30.10;48.80
52459;DHT22;38372;52.902;6.024;2023-06-10T13:12:42;30.10;49.20
52459;DHT22;38372;52.902;6.024;2023-06-10T13:15:09;30.20;48.40
52459;DHT22;38372;52.902;6.024;2023-06-10T13:17:35;30.10;46.70
52459;DHT22;38372;52.902;6.024;2023-06-10T13:20:04;30.00;48.20
52459;DHT22;38372;52.902;6.024;2023-06-10T13:22:31;29.90;48.80
52459;DHT22;38372;52.902;6.024;2023-06-10T13:25:05;30.00;49.10
52459;DHT22;38372;52.902;6.024;2023-06-10T13:27:33;30.20;48.70
52459;DHT22;38372;52.902;6.024;2023-06-10T13:29:59;30.10;49.00
52459;DHT22;38372;52.902;6.024;2023-06-10T13:32:25;30.10;49.40
52459;DHT22;38372;52.902;6.024;2023-06-10T13:34:51;30.10;48.80
52459;DHT22;38372;52.902;6.024;2023-06-10T13:37:19;30.00;49.10
52459;DHT22;38372;52.902;6.024;2023-06-10T13:39:45;30.20;49.30
52459;DHT22;38372;52.902;6.024;2023-06-10T13:42:17;30.40;49.00
52459;DHT22;38372;52.902;6.024;2023-06-10T13:44:43;30.40;49.20
52459;DHT22;38372;52.902;6.024;2023-06-10T13:47:09;30.30;50.00
52459;DHT22;38372;52.902;6.024;2023-06-10T13:49:35;30.20;49.90
52459;DHT22;38372;52.902;6.024;2023-06-10T13:52:02;30.20;49.40
52459;DHT22;38372;52.902;6.024;2023-06-10T13:54:28;30.30;49.50
52459;DHT22;38372;52.902;6.024;2023-06-10T13:56:53;30.40;50.20
52459;DHT22;38372;52.902;6.024;2023-06-10T13:59:20;30.60;49.80
52459;DHT22;38372;52.902;6.024;2023-06-10T14:01:46;30.90;50.10
52459;DHT22;38372;52.902;6.024;2023-06-10T14:04:12;31.10;50.50
52459;DHT22;38372;52.902;6.024;2023-06-10T14:06:38;31.30;49.90
52459;DHT22;38372;52.902;6.024;2023-06-10T14:09:04;31.30;49.40
52459;DHT22;38372;52.902;6.024;2023-06-10T14:11:30;31.20;49.30
52459;DHT22;38372;52.902;6.024;2023-06-10T14:13:56;31.10;49.70
52459;DHT22;38372;52.902;6.024;2023-06-10T14:16:24;30.90;49.40
52459;DHT22;38372;52.902;6.024;2023-06-10T14:18:50;30.80;50.20
52459;DHT22;38372;52.902;6.024;2023-06-10T14:21:19;30.60;50.20
52459;DHT22;38372;52.902;6.024;2023-06-10T14:23:45;30.50;51.10
52459;DHT22;38372;52.902;6.024;2023-06-10T14:26:11;30.30;51.40
52459;DHT22;38372;52.902;6.024;2023-06-10T14:28:37;30.10;51.30
52459;DHT22;38372;52.902;6.024;2023-06-10T14:31:03;30.00;51.30
52459;DHT22;38372;52.902;6.024;2023-06-10T14:33:29;30.00;51.50
52459;DHT22;38372;52.902;6.024;2023-06-10T14:35:57;30.00;51.60
52459;DHT22;38372;52.902;6.024;2023-06-10T14:38:23;29.90;52.20
52459;DHT22;38372;52.902;6.024;2023-06-10T14:40:49;29.90;52.00
52459;DHT22;38372;52.902;6.024;2023-06-10T14:43:14;29.80;51.00
52459;DHT22;38372;52.902;6.024;2023-06-10T14:45:40;29.70;51.10
52459;DHT22;38372;52.902;6.024;2023-06-10T14:48:07;29.50;50.30
52459;DHT22;38372;52.902;6.024;2023-06-10T14:50:34;29.40;50.30
52459;DHT22;38372;52.902;6.024;2023-06-10T14:53:00;29.30;51.20
52459;DHT22;38372;52.902;6.024;2023-06-10T14:55:27;29.30;51.80
52459;DHT22;38372;52.902;6.024;2023-06-10T14:57:53;29.10;52.00
52459;DHT22;38372;52.902;6.024;2023-06-10T15:00:19;29.00;52.70
52459;DHT22;38372;52.902;6.024;2023-06-10T15:02:47;28.80;52.90
52459;DHT22;38372;52.902;6.024;2023-06-10T15:05:14;28.60;53.50
52459;DHT22;38372;52.902;6.024;2023-06-10T15:07:44;28.50;53.70
52459;DHT22;38372;52.902;6.024;2023-06-10T15:10:10;28.30;55.00
52459;DHT22;38372;52.902;6.024;2023-06-10T15:12:36;28.10;55.60
52459;DHT22;38372;52.902;6.024;2023-06-10T15:15:03;28.00;55.90
52459;DHT22;38372;52.902;6.024;2023-06-10T15:17:29;27.90;56.20
52459;DHT22;38372;52.902;6.024;2023-06-10T15:19:55;27.80;56.60
52459;DHT22;38372;52.902;6.024;2023-06-10T15:22:21;27.80;56.60
52459;DHT22;38372;52.902;6.024;2023-06-10T15:24:47;27.80;55.80
52459;DHT22;38372;52.902;6.024;2023-06-10T15:27:13;27.80;55.50
52459;DHT22;38372;52.902;6.024;2023-06-10T15:29:39;27.80;56.20
52459;DHT22;38372;52.902;6.024;2023-06-10T15:32:05;27.70;56.50
52459;DHT22;38372;52.902;6.024;2023-06-10T15:34:31;27.60;57.10
52459;DHT22;38372;52.902;6.024;2023-06-10T15:36:57;27.50;57.20
52459;DHT22;38372;52.902;6.024;2023-06-10T15:39:23;27.40;56.90
52459;DHT22;38372;52.902;6.024;2023-06-10T15:41:50;27.40;56.90
52459;DHT22;38372;52.902;6.024;2023-06-10T15:44:16;27.30;56.60
52459;DHT22;38372;52.902;6.024;2023-06-10T15:46:42;27.30;56.90
52459;DHT22;38372;52.902;6.024;2023-06-10T15:49:08;27.30;56.50